Time;durP1;ratioP1;P1;durP2;ratioP2;P2;SDS_P1;SDS_P2;PMS_P1;PMS_P2;Temp;Humidity;BMP_temperature;BMP_pressure;BME280_temperature;BME280_humidity;BME280_pressure;Samples;Min_cycle;Max_cycle;Signal;HPM_P1;HPM_P2
2023/04/04 00:01:05;;;;;;;2.37;1.47;;;3.10;99.90;;;-141.84;60.59;19267.16;5070396;28;20933;-51
2023/04/04 00:03:33;;;;;;;2.93;1.57;;;3.10;99.90;;;-141.84;60.96;19250.91;5070584;28;20232;-55
2023/04/04 00:06:01;;;;;;;1.83;1.57;;;3.10;99.90;;;-141.84;61.59;19230.59;5070404;28;20236;-53
2023/04/04 00:08:29;;;;;;;2.73;1.63;;;3.00;99.90;;;-141.84;61.40;19236.69;5070537;28;20234;-53
2023/04/04 00:10:59;;;;;;;3.13;1.60;;;3.10;99.90;;;-141.84;61.39;19257.00;5071043;28;20204;-53
2023/04/04 00:13:29;;;;;;;2.60;1.30;;;3.00;99.90;;;-141.84;61.27;19240.75;5070331;28;20771;-55
2023/04/04 00:15:57;;;;;;;3.70;1.67;;;3.10;99.90;;;-141.84;60.97;19236.69;5070370;28;20232;-56
2023/04/04 00:18:25;;;;;;;2.67;1.70;;;3.10;99.90;;;-141.84;61.29;19277.34;5070355;28;20252;-53
2023/04/04 00:20:54;;;;;;;2.40;1.80;;;3.10;99.90;;;-141.84;62.19;19234.66;5069542;28;20225;-55
2023/04/04 00:23:22;;;;;;;3.63;1.50;;;3.10;99.90;;;-141.84;62.68;19248.88;5071149;28;20379;-54
2023/04/04 00:25:51;;;;;;;2.83;1.53;;;2.90;99.90;;;-141.84;62.60;19224.50;5091204;28;20206;-56
2023/04/04 00:28:20;;;;;;;2.43;1.60;;;2.90;99.90;;;-141.84;62.79;19234.66;5090456;28;20231;-57
2023/04/04 00:30:49;;;;;;;3.10;1.57;;;2.90;99.90;;;-141.84;62.39;19234.66;5090435;28;20248;-55
2023/04/04 00:33:17;;;;;;;2.17;1.50;;;2.90;99.90;;;-141.84;62.27;19212.31;5077374;28;20227;-53
2023/04/04 00:35:47;;;;;;;2.40;1.50;;;2.90;99.90;;;-141.84;62.50;19192.00;5070186;28;20228;-56
2023/04/04 00:38:16;;;;;;;4.60;1.70;;;2.90;99.90;;;-141.84;62.74;19202.16;5069871;28;20201;-54
2023/04/04 00:40:49;;;;;;;1.97;1.67;;;2.80;99.90;;;-141.84;62.96;19192.00;5070663;28;20209;-55
2023/04/04 00:43:18;;;;;;;2.90;1.70;;;2.80;99.90;;;-141.84;62.35;19222.47;5070066;28;20225;-56
2023/04/04 00:45:46;;;;;;;2.50;1.40;;;2.90;99.90;;;-141.84;62.60;19194.03;5069952;28;20228;-54
2023/04/04 00:48:17;;;;;;;2.43;1.50;;;2.90;99.90;;;-141.84;63.46;19216.38;5069994;28;20592;-54
2023/04/04 00:50:45;;;;;;;1.73;1.50;;;2.70;99.90;;;-141.84;63.85;19187.91;5069655;28;20217;-49
2023/04/04 00:53:13;;;;;;;3.97;1.93;;;2.70;99.90;;;-141.84;63.33;19204.19;5068796;28;20212;-54
2023/04/04 00:55:42;;;;;;;2.27;1.53;;;2.80;99.90;;;-141.84;63.48;19216.38;5070618;28;20209;-53
2023/04/04 00:58:11;;;;;;;2.47;1.50;;;2.70;99.90;;;-141.84;63.46;19185.88;5069721;28;20528;-53
2023/04/04 01:00:40;;;;;;;2.50;1.43;;;2.70;99.90;;;-141.84;63.97;19179.78;5069724;28;20614;-53
2023/04/04 01:03:11;;;;;;;2.10;1.57;;;2.70;99.90;;;-141.84;63.99;19226.53;5069536;28;20306;-56
2023/04/04 01:05:41;;;;;;;3.97;1.63;;;2.70;99.90;;;-141.84;64.37;19185.88;5068569;28;20217;-55
2023/04/04 01:08:09;;;;;;;2.63;1.33;;;2.60;99.90;;;-141.84;64.10;19173.69;5069924;28;20208;-53
2023/04/04 01:10:39;;;;;;;3.30;1.60;;;2.60;99.90;;;-141.84;64.78;19175.72;5070643;28;20201;-53
2023/04/04 01:13:08;;;;;;;4.00;1.57;;;2.50;99.90;;;-141.84;64.88;19218.41;5069640;28;20224;-51
2023/04/04 01:15:36;;;;;;;1.83;1.27;;;2.50;99.90;;;-141.84;65.04;19177.75;5069377;28;20649;-56
2023/04/04 01:18:08;;;;;;;2.17;1.53;;;2.50;99.90;;;-141.84;64.64;19200.13;5069738;28;20224;-53
2023/04/04 01:20:50;;;;;;;3.50;1.90;;;2.60;99.90;;;-141.84;64.50;19194.03;5070733;28;20223;-51
2023/04/04 01:23:19;;;;;;;4.10;1.73;;;2.60;99.90;;;-141.84;64.32;19206.22;5089656;28;20228;-54
2023/04/04 01:25:50;;;;;;;3.40;1.73;;;2.60;99.90;;;-141.84;63.87;19222.47;5090515;28;20195;-52
2023/04/04 01:28:18;;;;;;;3.83;1.83;;;2.70;99.90;;;-141.84;63.81;19185.88;5089743;28;20220;-54
2023/04/04 01:30:46;;;;;;;4.20;1.87;;;2.70;99.90;;;-141.84;64.66;19196.06;5089756;28;20230;-53
2023/04/04 01:33:31;;;;;;;2.67;1.57;;;2.60;99.90;;;-141.84;65.34;19167.59;5077306;28;20260;-52
2023/04/04 01:36:10;;;;;;;3.60;1.53;;;2.50;99.90;;;-141.84;65.92;19179.78;5069373;28;20228;-53
2023/04/04 01:38:52;;;;;;;2.37;1.73;;;2.40;99.90;;;-141.84;65.56;19147.28;5069632;28;20224;-51
2023/04/04 01:41:23;;;;;;;2.53;1.50;;;2.40;99.90;;;-141.84;65.53;19175.72;5069581;28;20185;-53
2023/04/04 01:43:52;;;;;;;3.90;2.03;;;2.40;99.90;;;-141.84;66.05;19220.44;5069692;28;20633;-53
2023/04/04 01:46:21;;;;;;;5.07;2.00;;;2.40;99.90;;;-141.84;64.55;19218.41;5069201;28;20233;-53
2023/04/04 01:48:49;;;;;;;5.87;1.90;;;2.40;99.90;;;-141.84;64.34;19189.97;5068949;28;20232;-56
2023/04/04 01:51:17;;;;;;;6.30;1.87;;;2.60;99.90;;;-141.84;65.44;19171.66;5069092;28;20232;-55
2023/04/04 01:53:45;;;;;;;2.53;1.50;;;2.50;99.90;;;-141.84;66.28;19163.53;5069056;28;20220;-50
2023/04/04 01:56:13;;;;;;;3.23;1.70;;;2.40;99.90;;;-141.84;65.90;19181.81;5069600;28;20207;-50
2023/04/04 01:58:43;;;;;;;2.47;1.77;;;2.40;99.90;;;-141.84;65.34;19192.00;5070027;28;20205;-56
2023/04/04 02:01:11;;;;;;;4.53;2.30;;;2.50;99.90;;;-141.84;64.38;19206.22;5050125;28;20225;-53
2023/04/04 02:03:39;;;;;;;2.87;1.80;;;2.60;99.90;;;-141.84;65.09;19169.63;5049353;28;20258;-49
2023/04/04 02:06:08;;;;;;;2.47;1.70;;;2.50;99.90;;;-141.84;66.28;19177.75;5064281;28;20282;-51
2023/04/04 02:08:37;;;;;;;3.93;1.87;;;2.30;99.90;;;-141.84;66.99;19131.03;5072931;28;20595;-53
2023/04/04 02:11:05;;;;;;;3.43;1.60;;;2.20;99.90;;;-141.84;66.91;19147.28;5072805;28;20923;-48
2023/04/04 02:13:33;;;;;;;3.90;2.00;;;2.20;99.90;;;-141.84;66.89;19159.47;5073328;28;20209;-51
2023/04/04 02:16:03;;;;;;;3.07;1.63;;;2.10;99.90;;;-141.84;67.02;19163.53;5075209;28;20240;-53
2023/04/04 02:18:32;;;;;;;3.00;1.70;;;2.10;99.90;;;-141.84;66.85;19141.19;5092644;28;20311;-50
2023/04/04 02:21:00;;;;;;;5.30;1.70;;;2.10;99.90;;;-141.84;66.64;19135.09;5072366;28;20229;-51
2023/04/04 02:23:28;;;;;;;5.80;1.90;;;2.10;99.90;;;-141.84;66.89;19147.28;5072445;28;20769;-52
2023/04/04 02:25:56;;;;;;;2.70;1.70;;;2.10;99.90;;;-141.84;66.64;19151.34;5073124;28;20201;-53
2023/04/04 02:28:24;;;;;;;2.63;1.70;;;2.10;99.90;;;-141.84;66.79;19187.91;5072310;28;20231;-52
2023/04/04 02:30:52;;;;;;;2.80;1.90;;;2.00;99.90;;;-141.84;66.72;19177.75;5072474;28;20340;-56
2023/04/04 02:33:22;;;;;;;2.70;1.97;;;2.00;99.90;;;-141.84;66.84;19110.72;5072401;28;20644;-52
2023/04/04 02:35:51;;;;;;;6.63;2.00;;;2.10;99.90;;;-141.84;66.22;19145.25;5072202;28;20598;-50
2023/04/04 02:38:19;;;;;;;3.60;1.70;;;2.10;99.90;;;-141.84;67.05;19129.00;5072296;28;20256;-50
2023/04/04 02:40:47;;;;;;;3.17;1.80;;;2.00;99.90;;;-141.84;67.35;19102.56;5072825;28;20197;-50
2023/04/04 02:43:15;;;;;;;2.90;1.60;;;1.80;99.90;;;-141.84;67.45;19120.88;5071836;28;20221;-53
2023/04/04 02:45:44;;;;;;;3.73;1.77;;;1.80;99.90;;;-141.84;67.02;19149.31;5072206;28;20252;-52
2023/04/04 02:48:12;;;;;;;3.77;1.87;;;1.90;99.90;;;-141.84;67.70;19122.91;5072167;28;20242;-50
2023/04/04 02:50:41;;;;;;;4.17;1.90;;;1.80;99.90;;;-141.84;67.82;19131.03;5071864;28;20236;-51
2023/04/04 02:53:10;;;;;;;2.87;1.70;;;1.80;99.90;;;-141.84;67.84;19131.03;5072109;28;20193;-52
2023/04/04 02:55:38;;;;;;;2.47;1.53;;;1.80;99.90;;;-141.84;69.04;19092.41;5072510;28;20201;-53
2023/04/04 02:58:06;;;;;;;4.07;1.70;;;1.70;99.90;;;-141.84;68.80;19122.91;5071999;28;20225;-51
2023/04/04 03:00:34;;;;;;;3.07;1.87;;;1.60;99.90;;;-141.84;68.68;19116.81;5071833;28;20236;-52
2023/04/04 03:03:02;;;;;;;4.40;2.30;;;1.60;99.90;;;-141.84;67.72;19118.84;5071789;28;20245;-51
2023/04/04 03:05:31;;;;;;;2.70;1.80;;;1.70;99.90;;;-141.84;68.06;19133.06;5071699;28;20646;-55
2023/04/04 03:08:01;;;;;;;5.53;2.10;;;1.60;99.90;;;-141.84;68.68;19110.72;5072257;28;20201;-54
2023/04/04 03:10:30;;;;;;;3.40;1.80;;;1.60;99.90;;;-141.84;69.28;19112.75;5059425;28;20280;-49
2023/04/04 03:12:59;;;;;;;6.77;1.90;;;1.50;99.90;;;-141.84;69.03;19096.47;5059701;28;20236;-52
2023/04/04 03:15:27;;;;;;;5.07;1.90;;;1.50;99.90;;;-141.84;69.55;19131.03;5070583;28;20224;-51
2023/04/04 03:17:57;;;;;;;3.83;1.60;;;1.60;99.90;;;-141.84;68.66;19137.13;5071688;28;20235;-50
2023/04/04 03:20:26;;;;;;;4.30;1.90;;;1.60;99.90;;;-141.84;68.36;19112.75;5055065;28;20243;-50
2023/04/04 03:22:54;;;;;;;4.50;2.00;;;1.60;99.90;;;-141.84;69.09;19088.34;5051596;28;20217;-53
2023/04/04 03:25:23;;;;;;;4.20;1.73;;;1.50;99.90;;;-141.84;69.19;19135.09;5051272;28;20232;-49
2023/04/04 03:27:52;;;;;;;3.17;1.80;;;1.50;99.90;;;-141.84;69.52;19118.84;5051457;28;20229;-52
2023/04/04 03:30:20;;;;;;;4.23;1.70;;;1.50;99.90;;;-141.84;68.63;19116.81;5051369;28;20236;-53
2023/04/04 03:32:49;;;;;;;2.07;1.80;;;1.50;99.90;;;-141.84;69.07;19116.81;5059972;28;20216;-50
2023/04/04 03:35:18;;;;;;;3.00;2.00;;;1.50;99.90;;;-141.84;68.72;19086.31;5070908;28;20208;-51
2023/04/04 03:37:46;;;;;;;5.20;1.93;;;1.50;99.90;;;-141.84;69.13;19104.59;5072044;28;20223;-54
2023/04/04 03:40:14;;;;;;;6.03;1.80;;;1.40;99.90;;;-141.84;69.07;19088.34;5070921;28;20227;-53
2023/04/04 03:42:44;;;;;;;4.03;1.80;;;1.50;99.90;;;-141.84;69.20;19114.78;5070939;28;20239;-52
2023/04/04 03:45:12;;;;;;;3.40;1.73;;;1.40;99.90;;;-141.84;69.67;19063.97;5071069;28;20658;-51
2023/04/04 03:47:41;;;;;;;5.40;1.97;;;1.30;99.90;;;-141.84;69.64;19068.03;5071089;28;20221;-49
2023/04/04 03:50:10;;;;;;;4.27;1.90;;;1.30;99.90;;;-141.84;70.48;19080.22;5070939;28;20201;-49
2023/04/04 03:52:39;;;;;;;3.57;1.83;;;1.30;99.90;;;-141.84;70.05;19120.88;5071446;28;20197;-50
2023/04/04 03:55:09;;;;;;;3.27;1.90;;;1.30;99.90;;;-141.84;69.60;19137.13;5070783;28;20228;-53
2023/04/04 03:57:37;;;;;;;2.87;2.00;;;1.30;99.90;;;-141.84;69.84;19082.25;5070959;28;20224;-53
2023/04/04 04:00:08;;;;;;;4.03;1.83;;;1.30;99.90;;;-141.84;69.94;19092.41;5060684;28;20754;-53
2023/04/04 04:02:36;;;;;;;3.73;2.00;;;1.30;99.90;;;-141.84;69.31;19076.16;5051320;28;20225;-54
2023/04/04 04:05:05;;;;;;;6.77;1.97;;;1.30;99.90;;;-141.84;68.50;19080.22;5053446;28;20292;-51
2023/04/04 04:07:34;;;;;;;3.83;1.90;;;1.40;99.90;;;-141.84;68.21;19108.69;5071167;28;20208;-51
2023/04/04 04:10:02;;;;;;;6.13;1.93;;;1.40;99.90;;;-141.84;68.31;19100.53;5076433;28;20232;-48
2023/04/04 04:12:30;;;;;;;3.10;2.00;;;1.40;99.90;;;-141.84;69.04;19078.19;5070305;28;20738;-53
2023/04/04 04:14:58;;;;;;;3.43;1.77;;;1.40;99.90;;;-141.84;68.03;19114.78;5070254;28;20229;-52
2023/04/04 04:17:28;;;;;;;3.70;2.00;;;1.40;99.90;;;-141.84;68.22;19143.22;5070578;28;20311;-53
2023/04/04 04:19:56;;;;;;;5.40;2.10;;;1.40;99.90;;;-141.84;68.36;19072.09;5070368;28;20197;-52
2023/04/04 04:22:25;;;;;;;2.93;2.17;;;1.40;99.90;;;-141.84;68.56;19110.72;5070623;28;20226;-52
2023/04/04 04:24:53;;;;;;;3.63;2.23;;;1.40;99.90;;;-141.84;68.03;19143.22;5069954;28;20232;-52
2023/04/04 04:27:21;;;;;;;2.40;1.80;;;1.50;99.90;;;-141.84;67.88;19092.41;5070363;28;20236;-50
2023/04/04 04:29:49;;;;;;;5.17;2.20;;;1.40;99.90;;;-141.84;68.85;19098.50;5070391;28;20228;-51
2023/04/04 04:32:17;;;;;;;3.83;2.00;;;1.30;99.90;;;-141.84;69.26;19092.41;5070224;28;20573;-51
2023/04/04 04:34:47;;;;;;;3.37;1.93;;;1.20;99.90;;;-141.84;70.07;19066.00;5070417;28;20199;-49
2023/04/04 04:37:16;;;;;;;6.43;2.33;;;1.10;99.90;;;-141.84;69.07;19068.03;5070060;28;20232;-49
2023/04/04 04:39:44;;;;;;;3.40;1.63;;;1.10;99.90;;;-141.84;69.54;19053.81;5070297;28;20239;-51
2023/04/04 04:42:12;;;;;;;4.27;1.93;;;1.00;99.90;;;-141.84;69.71;19051.78;5070294;28;20227;-50
2023/04/04 04:44:40;;;;;;;4.33;1.90;;;1.00;99.90;;;-141.84;70.03;19049.75;5070194;28;20725;-52
2023/04/04 04:47:08;;;;;;;3.40;1.70;;;1.00;99.90;;;-141.84;69.99;19063.97;5069989;28;20206;-56
2023/04/04 04:49:37;;;;;;;2.73;1.90;;;1.00;99.90;;;-141.84;70.12;19090.38;5070579;28;20296;-51
2023/04/04 04:52:06;;;;;;;3.80;2.00;;;1.00;99.90;;;-141.84;69.76;19070.06;5069615;28;20232;-53
2023/04/04 04:54:34;;;;;;;5.60;1.97;;;1.00;99.90;;;-141.84;68.91;19070.06;5070054;28;20598;-51
2023/04/04 04:57:03;;;;;;;2.73;1.87;;;1.10;99.90;;;-141.84;69.59;19096.47;5070069;28;20239;-51
2023/04/04 04:59:31;;;;;;;4.07;1.90;;;1.10;99.90;;;-141.84;69.49;19051.78;5065080;28;20229;-52
2023/04/04 05:01:59;;;;;;;3.80;1.83;;;1.10;99.90;;;-141.84;69.38;19088.34;5050662;28;20223;-54
2023/04/04 05:04:27;;;;;;;3.50;2.10;;;1.10;99.90;;;-141.84;69.06;19080.22;5049941;28;20247;-52
2023/04/04 05:06:55;;;;;;;2.30;1.70;;;1.10;99.90;;;-141.84;69.49;19078.19;5067388;28;20224;-52
2023/04/04 05:09:25;;;;;;;5.63;2.47;;;1.10;99.90;;;-141.84;69.23;19053.81;5069615;28;20220;-50
2023/04/04 05:11:53;;;;;;;3.53;2.10;;;1.00;99.90;;;-141.84;69.19;19090.38;5069876;28;20225;-53
2023/04/04 05:14:21;;;;;;;3.67;2.20;;;1.10;99.90;;;-141.84;69.02;19051.78;5069857;28;20215;-53
2023/04/04 05:16:49;;;;;;;4.93;1.93;;;1.10;99.90;;;-141.84;68.97;19086.31;5070684;28;20211;-50
2023/04/04 05:19:17;;;;;;;8.23;2.63;;;1.10;99.90;;;-141.84;68.88;19072.09;5069537;28;20217;-50
2023/04/04 05:21:46;;;;;;;5.57;2.00;;;1.20;99.90;;;-141.84;67.31;19110.72;5069398;28;20232;-53
2023/04/04 05:24:16;;;;;;;4.00;2.07;;;1.30;99.90;;;-141.84;67.49;19068.03;5069590;28;20232;-54
2023/04/04 05:26:45;;;;;;;3.10;1.93;;;1.30;99.90;;;-141.84;68.15;19102.56;5049481;28;20231;-54
2023/04/04 05:29:14;;;;;;;4.10;2.40;;;1.30;99.90;;;-141.84;67.37;19094.44;5049687;28;20205;-52
2023/04/04 05:31:42;;;;;;;4.57;1.90;;;1.40;99.90;;;-141.84;66.87;19094.44;5064930;28;20209;-54
2023/04/04 05:34:10;;;;;;;3.00;1.87;;;1.40;99.90;;;-141.84;66.95;19104.59;5069762;28;20227;-53
2023/04/04 05:36:38;;;;;;;3.27;1.53;;;1.40;99.90;;;-141.84;66.30;19098.50;5069184;28;20235;-53
2023/04/04 05:39:06;;;;;;;3.57;2.00;;;1.50;99.90;;;-141.84;66.91;19088.34;5070393;28;20285;-54
2023/04/04 05:41:35;;;;;;;3.03;1.80;;;1.40;99.90;;;-141.84;67.19;19124.94;5073390;28;20227;-54
2023/04/04 05:44:04;;;;;;;3.30;1.87;;;1.40;99.90;;;-141.84;66.81;19102.56;5074129;28;20232;-54
2023/04/04 05:46:32;;;;;;;4.20;2.00;;;1.40;99.90;;;-141.84;66.26;19094.44;5073387;28;20583;-54
2023/04/04 05:49:01;;;;;;;5.80;2.47;;;1.50;99.90;;;-141.84;65.13;19141.19;5068107;28;20225;-54
2023/04/04 05:51:29;;;;;;;4.23;2.60;;;1.70;99.90;;;-141.84;64.71;19167.59;5072178;28;20221;-55
2023/04/04 05:53:57;;;;;;;2.73;1.80;;;1.80;99.90;;;-141.84;65.08;19139.16;5073154;28;20221;-51
2023/04/04 05:56:25;;;;;;;4.87;2.73;;;1.80;99.90;;;-141.84;64.80;19126.97;5072772;28;20235;-51
2023/04/04 05:58:53;;;;;;;4.93;2.20;;;1.90;99.90;;;-141.84;64.00;19175.72;5073632;28;20205;-52
2023/04/04 06:01:24;;;;;;;4.97;2.37;;;1.90;99.90;;;-141.84;64.46;19122.91;5063287;28;20232;-54
2023/04/04 06:03:52;;;;;;;5.20;2.30;;;2.00;99.90;;;-141.84;64.18;19145.25;5093258;28;20678;-53
2023/04/04 06:06:20;;;;;;;4.20;2.20;;;2.00;99.90;;;-141.84;64.18;19159.47;5074169;28;20598;-53
2023/04/04 06:08:49;;;;;;;4.13;2.00;;;1.90;99.90;;;-141.84;64.26;19122.91;5072822;28;20232;-53
2023/04/04 06:11:22;;;;;;;5.50;2.47;;;1.80;99.90;;;-141.84;64.30;19108.69;5072963;28;20660;-51
2023/04/04 06:13:51;;;;;;;4.53;2.23;;;1.80;99.90;;;-141.84;62.90;19167.59;5073104;28;20201;-53
2023/04/04 06:16:19;;;;;;;5.93;2.50;;;2.00;99.90;;;-141.84;62.66;19163.53;5072675;28;20311;-51
2023/04/04 06:18:49;;;;;;;4.03;2.03;;;2.10;99.90;;;-141.84;62.87;19183.84;5072373;28;20228;-53
2023/04/04 06:21:17;;;;;;;4.37;1.90;;;2.10;99.90;;;-141.84;63.13;19185.88;5072482;28;20229;-52
2023/04/04 06:23:45;;;;;;;4.63;2.23;;;2.20;99.90;;;-141.84;63.32;19104.59;5072201;28;20228;-52
2023/04/04 06:26:13;;;;;;;3.77;1.97;;;2.10;99.90;;;-141.84;63.33;19147.28;5072615;28;20200;-54
2023/04/04 06:28:48;;;;;;;6.70;2.30;;;2.10;99.90;;;-141.84;63.99;19151.34;5073445;28;20206;-54
2023/04/04 06:31:16;;;;;;;4.90;2.10;;;2.00;99.90;;;-141.84;63.93;19143.22;5071863;28;20212;-50
2023/04/04 06:33:44;;;;;;;4.20;2.20;;;2.10;99.90;;;-141.84;62.72;19169.63;5072231;28;20648;-53
2023/04/04 06:36:14;;;;;;;5.37;2.33;;;2.20;99.90;;;-141.84;62.78;19171.66;5072583;28;20228;-53
2023/04/04 06:38:42;;;;;;;6.77;2.40;;;2.20;99.90;;;-141.84;62.22;19183.84;5072428;28;20311;-53
2023/04/04 06:41:10;;;;;;;4.17;2.50;;;2.30;99.90;;;-141.84;61.34;19173.69;5071959;28;20560;-52
2023/04/04 06:43:38;;;;;;;6.27;2.43;;;2.40;99.90;;;-141.84;61.15;19200.13;5072993;28;20211;-54
2023/04/04 06:46:07;;;;;;;4.30;2.13;;;2.50;99.90;;;-141.84;60.81;19200.13;5072206;28;20235;-53
2023/04/04 06:48:35;;;;;;;3.93;1.80;;;2.70;99.90;;;-141.84;60.41;19212.31;5072257;28;20228;-53
2023/04/04 06:51:06;;;;;;;4.07;2.20;;;2.80;99.90;;;-141.84;60.42;19222.47;5070608;28;20614;-52
2023/04/04 06:53:35;;;;;;;4.47;2.20;;;3.00;99.90;;;-141.84;59.64;19222.47;5069786;28;20234;-53
2023/04/04 06:56:04;;;;;;;5.53;2.50;;;3.00;99.90;;;-141.84;59.79;19220.44;5072084;28;20205;-54
2023/04/04 06:58:33;;;;;;;4.43;2.00;;;2.90;99.90;;;-141.84;58.72;19232.63;5072094;28;20208;-53
2023/04/04 07:01:02;;;;;;;3.27;2.20;;;3.20;99.90;;;-141.84;59.20;19281.41;5065102;28;20226;-53
2023/04/04 07:03:30;;;;;;;4.27;2.40;;;3.30;99.90;;;-141.84;58.66;19275.31;5052136;28;20279;-50
2023/04/04 07:06:02;;;;;;;7.00;2.97;;;3.30;99.90;;;-141.84;59.03;19259.03;5061787;28;20254;-51
2023/04/04 07:08:31;;;;;;;3.67;2.20;;;3.40;99.90;;;-141.84;58.99;19279.38;5071944;28;20230;-51
2023/04/04 07:11:06;;;;;;;3.23;2.17;;;3.50;99.90;;;-141.84;57.65;19293.59;5071979;28;20234;-56
2023/04/04 07:13:35;;;;;;;4.03;2.13;;;3.80;99.90;;;-141.84;57.77;19277.34;5072414;28;20189;-54
2023/04/04 07:16:03;;;;;;;3.00;1.80;;;3.80;99.90;;;-141.84;57.08;19305.78;5071740;28;20226;-54
2023/04/04 07:18:31;;;;;;;2.73;2.00;;;3.80;99.90;;;-141.84;57.27;19275.31;5071678;28;20311;-52
2023/04/04 07:20:59;;;;;;;3.57;2.20;;;3.70;99.90;;;-141.84;57.43;19267.16;5071290;28;20604;-51
2023/04/04 07:23:27;;;;;;;5.50;2.30;;;3.80;99.90;;;-141.84;57.40;19285.47;5071003;28;20711;-53
2023/04/04 07:25:55;;;;;;;4.03;2.10;;;3.90;99.90;;;-141.84;57.48;19263.09;5071926;28;20217;-55
2023/04/04 07:28:25;;;;;;;4.40;2.17;;;3.90;99.90;;;-141.84;57.85;19293.59;5071603;28;20596;-52
2023/04/04 07:30:54;;;;;;;5.53;2.00;;;3.90;99.90;;;-141.84;57.99;19287.50;5071491;28;20229;-54
2023/04/04 07:33:22;;;;;;;4.07;2.33;;;3.80;99.90;;;-141.84;57.75;19273.28;5071271;28;20232;-53
2023/04/04 07:35:51;;;;;;;3.80;1.80;;;3.80;99.90;;;-141.84;58.26;19259.03;5071108;28;20717;-50
2023/04/04 07:38:19;;;;;;;6.23;2.50;;;3.70;99.90;;;-141.84;58.89;19236.69;5071273;28;20293;-52
2023/04/04 07:40:49;;;;;;;3.90;2.20;;;3.70;99.90;;;-141.84;58.82;19305.78;5071985;28;20300;-52
2023/04/04 07:43:17;;;;;;;5.37;2.50;;;3.70;99.90;;;-141.84;57.81;19289.53;5070912;28;20317;-53
2023/04/04 07:45:47;;;;;;;4.57;2.30;;;3.70;99.90;;;-141.84;57.97;19311.88;5069311;28;20696;-53
2023/04/04 07:48:15;;;;;;;5.83;2.20;;;3.80;99.90;;;-141.84;57.77;19271.25;5071338;28;20759;-52
2023/04/04 07:50:43;;;;;;;4.40;2.10;;;3.80;99.90;;;-141.84;57.68;19273.28;5071082;28;20740;-49
2023/04/04 07:53:11;;;;;;;4.20;2.27;;;3.80;99.90;;;-141.84;57.62;19275.31;5070771;28;20206;-52
2023/04/04 07:55:39;;;;;;;3.97;1.93;;;3.80;99.90;;;-141.84;57.92;19281.41;5071230;28;20611;-53
2023/04/04 07:58:07;;;;;;;6.57;3.10;;;3.80;99.90;;;-141.84;58.77;19240.75;5071095;28;20229;-54
2023/04/04 08:00:35;;;;;;;5.20;2.27;;;3.60;99.90;;;-141.84;58.33;19265.13;5059419;28;20235;-51
2023/04/04 08:03:05;;;;;;;6.07;2.33;;;3.60;99.90;;;-141.84;58.59;19254.97;5070758;28;20229;-51
2023/04/04 08:05:33;;;;;;;3.63;2.33;;;3.70;99.90;;;-141.84;58.70;19320.00;5070444;28;20316;-53
2023/04/04 08:08:02;;;;;;;4.37;2.33;;;3.70;99.90;;;-141.84;59.03;19263.09;5071312;28;20205;-54
2023/04/04 08:10:30;;;;;;;5.53;2.20;;;3.60;99.90;;;-141.84;59.43;19281.41;5070374;28;20703;-52
2023/04/04 08:12:58;;;;;;;2.67;2.07;;;3.80;99.90;;;-141.84;58.70;19291.56;5070728;28;20232;-52
2023/04/04 08:15:26;;;;;;;7.43;2.33;;;3.90;99.90;;;-141.84;57.67;19289.53;5070675;28;20599;-53
2023/04/04 08:17:55;;;;;;;4.70;2.20;;;4.00;99.90;;;-141.84;57.58;19322.03;5070845;28;20626;-53
2023/04/04 08:20:25;;;;;;;6.07;2.00;;;4.00;99.90;;;-141.84;56.44;19301.72;5082878;28;20210;-51
2023/04/04 08:22:53;;;;;;;3.13;2.10;;;4.10;99.90;;;-141.84;56.08;19305.78;5091103;28;20219;-51
2023/04/04 08:25:21;;;;;;;2.70;1.90;;;4.00;99.90;;;-141.84;55.99;19315.94;5081460;28;20692;-51
2023/04/04 08:27:49;;;;;;;4.73;2.10;;;4.10;99.90;;;-141.84;55.95;19346.44;5070344;28;20224;-51
2023/04/04 08:30:18;;;;;;;3.83;1.93;;;4.30;99.90;;;-141.84;55.56;19362.69;5070123;28;20234;-52
2023/04/04 08:32:47;;;;;;;2.77;1.70;;;4.50;99.90;;;-141.84;53.79;19364.72;5070204;28;20232;-52
2023/04/04 08:35:15;;;;;;;3.50;1.90;;;4.50;99.90;;;-141.84;54.29;19315.94;5069373;28;20231;-56
2023/04/04 08:37:48;;;;;;;4.67;2.10;;;4.50;99.90;;;-141.84;54.57;19391.13;5070795;28;20204;-55
2023/04/04 08:40:17;;;;;;;4.70;2.30;;;4.50;99.90;;;-141.84;53.87;19395.19;5070143;28;20235;-54
2023/04/04 08:42:46;;;;;;;3.33;2.10;;;4.70;99.90;;;-141.84;52.62;19409.41;5055092;28;20233;-54
2023/04/04 08:45:19;;;;;;;2.20;1.80;;;5.00;99.90;;;-141.84;52.56;19397.22;5049714;28;20228;-53
2023/04/04 08:47:52;;;;;;;2.90;1.63;;;5.10;99.90;;;-141.84;50.97;19454.13;5050234;28;20222;-52
2023/04/04 08:50:21;;;;;;;4.07;1.90;;;5.30;99.90;;;-141.84;50.43;19421.63;5059544;28;20225;-54
2023/04/04 08:52:52;;;;;;;3.07;1.83;;;5.40;99.90;;;-141.84;48.83;19509.00;5070015;28;20703;-53
2023/04/04 08:55:21;;;;;;;1.83;1.43;;;5.80;99.90;;;-141.84;47.93;19551.69;5069804;28;20227;-51
2023/04/04 08:57:49;;;;;;;3.40;1.67;;;6.10;99.90;;;-141.84;46.97;19551.69;5069794;28;20225;-54
2023/04/04 09:00:20;;;;;;;2.97;1.80;;;6.10;99.90;;;-141.84;47.44;19443.97;5069588;28;20221;-52
2023/04/04 09:02:57;;;;;;;2.47;1.90;;;5.90;99.90;;;-141.84;47.48;19525.25;5050103;28;20221;-55
2023/04/04 09:05:26;;;;;;;3.63;1.80;;;6.00;99.90;;;-141.84;47.69;19509.00;5055251;28;20228;-51
2023/04/04 09:07:56;;;;;;;2.83;1.70;;;6.10;99.90;;;-141.84;47.07;19504.94;5070402;28;20208;-54
2023/04/04 09:10:24;;;;;;;4.13;1.80;;;6.10;99.90;;;-141.84;45.55;19561.84;5069507;28;20220;-49
2023/04/04 09:12:54;;;;;;;4.77;1.80;;;6.40;99.90;;;-141.84;44.72;19651.25;5069833;28;20232;-52
2023/04/04 09:15:38;;;;;;;2.13;1.70;;;6.70;99.90;;;-141.84;43.85;19653.28;5073144;28;20240;-51
2023/04/04 09:18:06;;;;;;;2.10;1.60;;;6.90;99.90;;;-141.84;44.61;19565.91;5074161;28;20229;-51
2023/04/04 09:20:40;;;;;;;2.67;2.10;;;6.80;99.90;;;-141.84;45.74;19502.91;5073454;28;20247;-53
2023/04/04 09:23:12;;;;;;;2.43;1.73;;;6.20;99.90;;;-141.84;47.07;19488.69;5073530;28;20192;-55
2023/04/04 09:25:47;;;;;;;2.33;1.90;;;5.90;99.90;;;-141.84;45.70;19502.91;5074282;28;20612;-55
2023/04/04 09:28:33;;;;;;;3.33;1.80;;;5.90;99.90;;;-141.84;45.82;19515.09;5074053;28;20200;-54
2023/04/04 09:31:04;;;;;;;3.00;1.70;;;5.90;99.90;;;-141.84;45.90;19498.84;5073612;28;20232;-53
2023/04/04 09:33:34;;;;;;;2.20;1.30;;;5.70;99.90;;;-141.84;44.86;19492.75;5073779;28;20228;-53
2023/04/04 09:36:08;;;;;;;2.93;1.43;;;5.70;99.90;;;-141.84;44.15;19553.72;5073372;28;20699;-54
2023/04/04 09:38:42;;;;;;;2.83;1.50;;;5.80;99.90;;;-141.84;43.73;19551.69;5073641;28;20220;-52
2023/04/04 09:41:14;;;;;;;2.27;1.50;;;6.00;99.90;;;-141.84;45.31;19527.28;5073330;28;20191;-54
2023/04/04 09:43:46;;;;;;;4.63;1.90;;;5.90;99.90;;;-141.84;45.08;19509.00;5074511;28;20272;-54
2023/04/04 09:46:14;;;;;;;2.73;1.70;;;5.80;99.90;;;-141.84;44.67;19511.03;5073406;28;20233;-53
2023/04/04 09:48:50;;;;;;;1.30;1.20;;;5.70;99.90;;;-141.84;44.67;19511.03;5073464;28;20278;-52
2023/04/04 09:51:18;;;;;;;1.60;1.20;;;5.70;99.90;;;-141.84;44.79;19470.38;5073128;28;20637;-54
2023/04/04 09:53:50;;;;;;;2.17;1.40;;;5.70;99.90;;;-141.84;44.42;19496.81;5072332;28;20711;-53
2023/04/04 09:56:19;;;;;;;4.07;1.80;;;5.70;99.90;;;-141.84;44.12;19539.47;5073304;28;20196;-53
2023/04/04 09:58:49;;;;;;;12.93;10.20;;;6.00;99.90;;;-141.84;42.68;19637.03;5073867;28;20200;-51
2023/04/04 10:01:32;;;;;;;1.87;1.50;;;6.50;99.90;;;-141.84;41.53;19708.16;5062465;28;20301;-51
2023/04/04 10:04:00;;;;;;;4.40;1.77;;;7.00;99.90;;;-141.84;39.56;19763.03;5073267;28;20224;-54
2023/04/04 10:06:30;;;;;;;2.80;1.60;;;7.50;99.90;;;-141.84;40.03;19783.34;5072610;28;20252;-52
2023/04/04 10:09:02;;;;;;;2.13;1.80;;;7.80;99.90;;;-141.84;40.16;19687.84;5073051;28;20229;-51
2023/04/04 10:11:33;;;;;;;3.53;1.57;;;7.70;99.90;;;-141.84;41.27;19651.25;5072750;28;20241;-52
2023/04/04 10:14:03;;;;;;;1.93;1.60;;;7.40;99.90;;;-141.84;40.92;19624.84;5073714;28;20181;-53
2023/04/04 10:16:36;;;;;;;10.90;6.40;;;7.00;99.90;;;-141.84;41.25;19635.00;5073153;28;20200;-52
2023/04/04 10:19:07;;;;;;;3.27;2.00;;;6.70;99.90;;;-141.84;41.70;19549.63;5072669;28;20304;-51
2023/04/04 10:21:36;;;;;;;3.07;2.10;;;6.50;99.90;;;-141.84;42.54;19549.63;5072436;28;20276;-53